Crystal, Maine
Current Conditions -  °F | °C
As of 8:15 PM on Tuesday 27 Jan 2015 (Local Time) from KHUL Reporting Station
Unknown Precip Unknown Precip  
Wind Chill: -13°   Ceiling: 3300
Heat Index:   Visibility: 3mi
Dew Point:   Wind: 20mph
Humidity: 80%   Direction: 10°N
Pressure: 29.71"   Gusts: NA
Location:  46.0051°N, 68.2487°W
Report Text: KHUL 280115Z AUTO 01017KT 3SM UP OVC033 M14/M17 A2971 RMK AO2 PK WND 02026/0101 UPB05SNE05 P0000 T11391167
Loading
Personal Weather Stations






























Interactive Weather Map New forecast layout! Learn more

10-Day Weather Forecast

Advertisements
Track Severe Weather on mobile